Time;durP1;ratioP1;P1;durP2;ratioP2;P2;SDS_P1;SDS_P2;PMS_P1;PMS_P2;Temp;Humidity;BMP_temperature;BMP_pressure;BME280_temperature;BME280_humidity;BME280_pressure;Samples;Min_cycle;Max_cycle;Signal;HPM_P1;HPM_P2
2021/11/28 00:00:06;;;;;;;;;;;;;;;;;;5096365;28;19916;-86
2021/11/28 00:02:34;;;;;;;;;;;;;;;;;;5096712;28;19920;-86
2021/11/28 00:05:00;;;;;;;;;;;;;;;;;;5096424;28;19924;-81
2021/11/28 00:15:03;;;;;;;;;;;;;;;;;;5096184;28;19955;-86
2021/11/28 00:17:29;;;;;;;;;;;;;;;;;;5095905;28;19945;-86
2021/11/28 00:19:54;;;;;;;;;;;;;;;;;;5096123;28;19916;-87
2021/11/28 00:22:20;;;;;;;;;;;;;;;;;;5095980;28;19920;-87
2021/11/28 00:24:45;;;;;;;;;;;;;;;;;;5096062;28;20282;-80
2021/11/28 00:27:11;;;;;;;;;;;;;;;;;;5077848;28;20012;-83
2021/11/28 00:29:36;;;;;;;;;;;;;;;;;;5095760;28;19955;-86
2021/11/28 00:32:02;;;;;;;;;;;;;;;;;;5077938;28;19927;-83
2021/11/28 00:34:28;;;;;;;;;;;;;;;;;;5095780;28;19973;-86
2021/11/28 00:36:53;;;;;;;;;;;;;;;;;;5095762;28;20291;-86
2021/11/28 00:39:19;;;;;;;;;;;;;;;;;;5077628;28;19970;-87
2021/11/28 00:41:45;;;;;;;;;;;;;;;;;;5111442;28;19920;-86
2021/11/28 00:44:10;;;;;;;;;;;;;;;;;;5095638;28;19916;-81
2021/11/28 00:46:36;;;;;;;;;;;;;;;;;;5095497;28;20006;-78
2021/11/28 00:49:03;;;;;;;;;;;;;;;;;;5095495;28;20007;-85
2021/11/28 00:54:14;;;;;;;;;;;;;;;;;;5095475;28;19927;-84
2021/11/28 00:56:39;;;;;;;;;;;;;;;;;;5095307;28;19916;-86
2021/11/28 00:59:05;;;;;;;;;;;;;;;;;;5111131;28;20019;-86
2021/11/28 01:01:30;;;;;;;;;;;;;;;;;;5095260;28;20019;-86
2021/11/28 01:03:56;;;;;;;;;;;;;;;;;;5095175;28;20412;-83
2021/11/28 01:06:21;;;;;;;;;;;;;;;;;;5095200;28;19917;-86
2021/11/28 01:08:47;;;;;;;;;;;;;;;;;;5095180;28;19966;-87
2021/11/28 01:11:12;;;;;;;;;;;;;;;;;;5095035;28;20295;-87
2021/11/28 01:13:38;;;;;;;;;;;;;;;;;;5095114;28;19916;-86
2021/11/28 01:16:04;;;;;;;;;;;;;;;;;;5094806;28;19920;-86
2021/11/28 01:18:32;;;;;;;;;;;;;;;;;;5095021;28;20053;-86
2021/11/28 01:20:57;;;;;;;;;;;;;;;;;;5094881;28;19916;-85
2021/11/28 01:23:23;;;;;;;;;;;;;;;;;;5094667;28;19928;-87
2021/11/28 01:25:48;;;;;;;;;;;;;;;;;;5094108;28;19923;-81
2021/11/28 01:28:14;;;;;;;;;;;;;;;;;;5076572;28;19919;-80
2021/11/28 01:30:39;;;;;;;;;;;;;;;;;;5094665;28;19942;-86
2021/11/28 01:33:05;;;;;;;;;;;;;;;;;;5094678;28;19970;-84
2021/11/28 01:35:30;;;;;;;;;;;;;;;;;;5094488;28;20358;-85
2021/11/28 01:37:56;;;;;;;;;;;;;;;;;;5094585;28;19923;-86
2021/11/28 01:40:21;;;;;;;;;;;;;;;;;;5094438;28;19920;-86
2021/11/28 01:42:52;;;;;;;;;;;;;;;;;;5094420;28;19916;-86
2021/11/28 01:45:21;;;;;;;;;;;;;;;;;;5094467;28;19923;-86
2021/11/28 01:47:47;;;;;;;;;;;;;;;;;;5076214;28;20348;-86
2021/11/28 01:50:13;;;;;;;;;;;;;;;;;;5094274;28;19924;-86
2021/11/28 01:52:38;;;;;;;;;;;;;;;;;;5110072;28;19916;-79
2021/11/28 01:55:09;;;;;;;;;;;;;;;;;;5094215;28;19955;-85
2021/11/28 01:57:35;;;;;;;;;;;;;;;;;;5076402;28;19944;-79
2021/11/28 02:00:03;;;;;;;;;;;;;;;;;;5094156;28;19920;-86
2021/11/28 02:02:29;;;;;;;;;;;;;;;;;;5094400;28;19947;-86
2021/11/28 02:04:55;;;;;;;;;;;;;;;;;;5094063;28;19916;-84
2021/11/28 02:07:21;;;;;;;;;;;;;;;;;;5094050;28;19929;-80
2021/11/28 02:09:46;;;;;;;;;;;;;;;;;;5109586;28;20282;-83
2021/11/28 02:12:12;;;;;;;;;;;;;;;;;;5093923;28;20383;-82
2021/11/28 02:14:37;;;;;;;;;;;;;;;;;;5093881;28;19917;-85
2021/11/28 02:17:04;;;;;;;;;;;;;;;;;;5093634;28;19931;-81
2021/11/28 02:19:29;;;;;;;;;;;;;;;;;;5093854;28;20011;-85
2021/11/28 02:21:55;;;;;;;;;;;;;;;;;;5093833;28;20014;-86
2021/11/28 02:24:22;;;;;;;;;;;;;;;;;;5092888;28;20221;-86
2021/11/28 02:26:48;;;;;;;;;;;;;;;;;;5093727;28;19967;-85
2021/11/28 02:29:13;;;;;;;;;;;;;;;;;;5093620;28;20065;-85
2021/11/28 02:31:39;;;;;;;;;;;;;;;;;;5075394;28;19970;-86
2021/11/28 02:34:04;;;;;;;;;;;;;;;;;;5075766;28;20003;-85
2021/11/28 02:36:30;;;;;;;;;;;;;;;;;;5093638;28;19919;-85
2021/11/28 02:38:55;;;;;;;;;;;;;;;;;;5093559;28;19923;-85
2021/11/28 02:41:21;;;;;;;;;;;;;;;;;;5093534;28;20009;-84
2021/11/28 02:43:46;;;;;;;;;;;;;;;;;;5093478;28;19916;-85
2021/11/28 02:46:12;;;;;;;;;;;;;;;;;;5093459;28;19963;-86
2021/11/28 02:48:38;;;;;;;;;;;;;;;;;;5093398;28;19923;-86
2021/11/28 02:51:04;;;;;;;;;;;;;;;;;;5093273;28;19969;-80
2021/11/28 02:53:29;;;;;;;;;;;;;;;;;;5093343;28;19920;-85
2021/11/28 02:55:56;;;;;;;;;;;;;;;;;;5093254;28;20315;-83
2021/11/28 02:58:22;;;;;;;;;;;;;;;;;;5093392;28;19916;-84
2021/11/28 03:00:53;;;;;;;;;;;;;;;;;;5093323;28;19938;-82
2021/11/28 03:03:19;;;;;;;;;;;;;;;;;;5093295;28;19923;-81
2021/11/28 03:05:44;;;;;;;;;;;;;;;;;;5093312;28;19920;-86
2021/11/28 03:08:13;;;;;;;;;;;;;;;;;;5093223;28;19916;-84
2021/11/28 03:10:49;;;;;;;;;;;;;;;;;;5093133;28;20375;-83
2021/11/28 03:13:16;;;;;;;;;;;;;;;;;;5074968;28;20363;-85
2021/11/28 03:15:42;;;;;;;;;;;;;;;;;;5092913;28;20364;-81
2021/11/28 03:18:11;;;;;;;;;;;;;;;;;;5093154;28;19920;-85
2021/11/28 03:20:37;;;;;;;;;;;;;;;;;;5093039;28;19967;-86
2021/11/28 03:23:02;;;;;;;;;;;;;;;;;;5093073;28;20020;-85
2021/11/28 03:25:30;;;;;;;;;;;;;;;;;;5093042;28;19978;-86
2021/11/28 03:27:55;;;;;;;;;;;;;;;;;;5093133;28;20321;-86
2021/11/28 03:30:21;;;;;;;;;;;;;;;;;;5092917;28;19927;-87
2021/11/28 03:32:47;;;;;;;;;;;;;;;;;;5092976;28;19917;-86
2021/11/28 03:35:12;;;;;;;;;;;;;;;;;;5093044;28;20443;-85
2021/11/28 03:37:38;;;;;;;;;;;;;;;;;;5092974;28;20011;-85
2021/11/28 03:40:05;;;;;;;;;;;;;;;;;;5108603;28;20428;-86
2021/11/28 03:42:30;;;;;;;;;;;;;;;;;;5092867;28;19966;-87
2021/11/28 03:44:56;;;;;;;;;;;;;;;;;;5092866;28;19916;-79
2021/11/28 03:47:21;;;;;;;;;;;;;;;;;;5093390;28;20572;-81
2021/11/28 03:49:47;;;;;;;;;;;;;;;;;;5096664;28;20129;-80
2021/11/28 03:52:12;;;;;;;;;;;;;;;;;;5096937;28;19924;-82
2021/11/28 03:54:38;;;;;;;;;;;;;;;;;;5096604;28;19920;-80
2021/11/28 03:57:05;;;;;;;;;;;;;;;;;;5096866;28;19928;-86
2021/11/28 03:59:30;;;;;;;;;;;;;;;;;;5096541;28;19916;-80
2021/11/28 04:01:56;;;;;;;;;;;;;;;;;;5096404;28;19985;-82
2021/11/28 04:04:22;;;;;;;;;;;;;;;;;;5096470;28;20282;-85
2021/11/28 04:06:48;;;;;;;;;;;;;;;;;;5096455;28;19969;-86
2021/11/28 04:09:13;;;;;;;;;;;;;;;;;;5096324;28;19924;-78
2021/11/28 04:11:39;;;;;;;;;;;;;;;;;;5096171;28;20375;-84
2021/11/28 04:14:04;;;;;;;;;;;;;;;;;;5096129;28;19973;-82
2021/11/28 04:16:30;;;;;;;;;;;;;;;;;;5096045;28;19920;-85
2021/11/28 04:18:55;;;;;;;;;;;;;;;;;;5077867;28;20020;-86
2021/11/28 04:21:21;;;;;;;;;;;;;;;;;;5096083;28;20004;-85
2021/11/28 04:23:48;;;;;;;;;;;;;;;;;;5096009;28;19963;-85
2021/11/28 04:26:14;;;;;;;;;;;;;;;;;;5095938;28;19916;-85
2021/11/28 04:28:39;;;;;;;;;;;;;;;;;;5095932;28;20007;-86
2021/11/28 04:31:05;;;;;;;;;;;;;;;;;;5095843;28;20393;-86
2021/11/28 04:33:30;;;;;;;;;;;;;;;;;;5095821;28;20290;-87
2021/11/28 04:35:56;;;;;;;;;;;;;;;;;;5095767;28;19916;-85
2021/11/28 04:38:21;;;;;;;;;;;;;;;;;;5095693;28;20280;-83
2021/11/28 04:40:47;;;;;;;;;;;;;;;;;;5095763;28;20295;-86
2021/11/28 04:43:12;;;;;;;;;;;;;;;;;;5095724;28;20003;-84
2021/11/28 04:45:38;;;;;;;;;;;;;;;;;;5095495;28;20295;-85
2021/11/28 04:48:04;;;;;;;;;;;;;;;;;;5095612;28;19941;-85
2021/11/28 04:50:29;;;;;;;;;;;;;;;;;;5095420;28;19916;-85
2021/11/28 04:52:55;;;;;;;;;;;;;;;;;;5077261;28;19959;-86
2021/11/28 04:55:20;;;;;;;;;;;;;;;;;;5095411;28;19920;-86
2021/11/28 04:57:46;;;;;;;;;;;;;;;;;;5095330;28;19916;-86
2021/11/28 05:00:15;;;;;;;;;;;;;;;;;;5094047;28;19916;-86
2021/11/28 05:02:41;;;;;;;;;;;;;;;;;;5095310;28;19916;-86
2021/11/28 05:05:07;;;;;;;;;;;;;;;;;;5095208;28;20405;-85
2021/11/28 05:07:32;;;;;;;;;;;;;;;;;;5095255;28;19969;-85
2021/11/28 05:09:58;;;;;;;;;;;;;;;;;;5095074;28;19924;-86
2021/11/28 05:12:24;;;;;;;;;;;;;;;;;;5095127;28;19924;-86
2021/11/28 05:14:51;;;;;;;;;;;;;;;;;;5095035;28;19916;-86
2021/11/28 05:17:17;;;;;;;;;;;;;;;;;;5094817;28;19920;-86
2021/11/28 05:19:42;;;;;;;;;;;;;;;;;;5094948;28;20555;-86
2021/11/28 05:22:08;;;;;;;;;;;;;;;;;;5094813;28;19912;-84
2021/11/28 05:24:33;;;;;;;;;;;;;;;;;;5094869;28;19966;-76
2021/11/28 05:26:59;;;;;;;;;;;;;;;;;;5076980;28;19946;-76
2021/11/28 05:29:24;;;;;;;;;;;;;;;;;;5094739;28;19973;-78
2021/11/28 05:31:49;;;;;;;;;;;;;;;;;;5094613;28;19952;-85
2021/11/28 05:34:15;;;;;;;;;;;;;;;;;;5096336;28;19924;-85
2021/11/28 05:36:40;;;;;;;;;;;;;;;;;;5097227;28;19916;-85
2021/11/28 05:39:06;;;;;;;;;;;;;;;;;;5093018;28;19920;-86
2021/11/28 05:41:31;;;;;;;;;;;;;;;;;;5060924;28;19967;-81
2021/11/28 05:43:57;;;;;;;;;;;;;;;;;;5087328;28;20375;-84
2021/11/28 05:46:22;;;;;;;;;;;;;;;;;;5078710;28;19920;-84
2021/11/28 05:48:48;;;;;;;;;;;;;;;;;;5078849;28;19924;-82
2021/11/28 05:51:14;;;;;;;;;;;;;;;;;;5080571;28;20410;-85
2021/11/28 05:53:39;;;;;;;;;;;;;;;;;;5079045;28;19940;-83
2021/11/28 05:56:05;;;;;;;;;;;;;;;;;;5074746;28;19920;-85
2021/11/28 05:58:30;;;;;;;;;;;;;;;;;;5084607;28;19962;-81
2021/11/28 06:00:56;;;;;;;;;;;;;;;;;;5080954;28;19920;-80
2021/11/28 06:03:21;;;;;;;;;;;;;;;;;;5078389;28;19920;-77
2021/11/28 06:05:47;;;;;;;;;;;;;;;;;;5078380;28;19921;-77
2021/11/28 06:08:12;;;;;;;;;;;;;;;;;;5078991;28;19924;-76
2021/11/28 06:10:38;;;;;;;;;;;;;;;;;;5077881;28;20003;-84
2021/11/28 06:13:04;;;;;;;;;;;;;;;;;;5077700;28;20363;-78
2021/11/28 06:15:29;;;;;;;;;;;;;;;;;;5085859;28;20363;-81
2021/11/28 06:17:55;;;;;;;;;;;;;;;;;;5079609;28;19921;-82
2021/11/28 06:20:21;;;;;;;;;;;;;;;;;;5077482;28;19920;-83
2021/11/28 06:22:47;;;;;;;;;;;;;;;;;;5079274;28;20324;-81
2021/11/28 06:25:12;;;;;;;;;;;;;;;;;;5073663;28;20374;-76
2021/11/28 06:27:38;;;;;;;;;;;;;;;;;;5093674;28;19916;-86
2021/11/28 06:30:05;;;;;;;;;;;;;;;;;;5072572;28;19983;-84
2021/11/28 06:32:31;;;;;;;;;;;;;;;;;;5084653;28;19921;-81
2021/11/28 06:34:57;;;;;;;;;;;;;;;;;;5089599;28;20428;-85
2021/11/28 06:37:22;;;;;;;;;;;;;;;;;;5093603;28;19923;-82
2021/11/28 06:39:48;;;;;;;;;;;;;;;;;;5093536;28;19916;-84
2021/11/28 06:42:13;;;;;;;;;;;;;;;;;;5093517;28;19919;-88
2021/11/28 06:44:38;;;;;;;;;;;;;;;;;;5089809;28;19920;-78
2021/11/28 06:47:04;;;;;;;;;;;;;;;;;;5075294;28;19920;-76
2021/11/28 06:49:29;;;;;;;;;;;;;;;;;;5093482;28;20337;-76
2021/11/28 06:51:56;;;;;;;;;;;;;;;;;;5093289;28;19989;-77
2021/11/28 06:54:22;;;;;;;;;;;;;;;;;;5093432;28;19962;-76
2021/11/28 06:56:48;;;;;;;;;;;;;;;;;;5093321;28;19969;-76
2021/11/28 06:59:14;;;;;;;;;;;;;;;;;;5075220;28;19920;-75
2021/11/28 07:01:42;;;;;;;;;;;;;;;;;;5078478;28;19920;-75
2021/11/28 07:04:07;;;;;;;;;;;;;;;;;;5090738;28;20385;-75
2021/11/28 07:06:33;;;;;;;;;;;;;;;;;;5093202;28;20007;-74
2021/11/28 07:08:58;;;;;;;;;;;;;;;;;;5084585;28;19970;-75
2021/11/28 07:11:24;;;;;;;;;;;;;;;;;;5065644;28;19953;-77
2021/11/28 07:13:51;;;;;;;;;;;;;;;;;;5077724;28;19917;-78
2021/11/28 07:16:19;;;;;;;;;;;;;;;;;;5083768;28;19920;-76
2021/11/28 07:18:45;;;;;;;;;;;;;;;;;;5069193;28;19928;-84
2021/11/28 07:21:14;;;;;;;;;;;;;;;;;;5088194;28;20410;-76
2021/11/28 07:23:40;;;;;;;;;;;;;;;;;;5106010;27;19920;-81
2021/11/28 07:26:07;;;;;;;;;;;;;;;;;;5085478;28;19974;-82
2021/11/28 07:28:32;;;;;;;;;;;;;;;;;;5091209;28;19924;-83
2021/11/28 07:30:58;;;;;;;;;;;;;;;;;;5096175;28;19931;-81
2021/11/28 07:33:23;;;;;;;;;;;;;;;;;;5096897;28;20295;-77
2021/11/28 07:35:49;;;;;;;;;;;;;;;;;;5095155;28;20023;-77
2021/11/28 07:38:14;;;;;;;;;;;;;;;;;;5078542;28;20366;-78
2021/11/28 07:40:40;;;;;;;;;;;;;;;;;;5096883;28;19958;-76
2021/11/28 07:43:05;;;;;;;;;;;;;;;;;;5096782;28;20374;-77
2021/11/28 07:45:31;;;;;;;;;;;;;;;;;;5096721;28;20375;-78
2021/11/28 07:47:58;;;;;;;;;;;;;;;;;;5097055;28;19916;-77
2021/11/28 07:50:24;;;;;;;;;;;;;;;;;;5096654;28;19969;-76
2021/11/28 07:52:50;;;;;;;;;;;;;;;;;;5096639;28;20426;-77
2021/11/28 07:55:15;;;;;;;;;;;;;;;;;;5096579;28;19920;-76
2021/11/28 07:57:40;;;;;;;;;;;;;;;;;;5096500;28;20015;-77
2021/11/28 08:00:06;;;;;;;;;;;;;;;;;;5096379;28;20019;-76
2021/11/28 08:02:32;;;;;;;;;;;;;;;;;;5096415;28;19917;-77
2021/11/28 08:04:58;;;;;;;;;;;;;;;;;;5098254;28;19927;-77
2021/11/28 08:07:23;;;;;;;;;;;;;;;;;;5106425;28;19926;-77
2021/11/28 08:09:49;;;;;;;;;;;;;;;;;;5114463;28;19921;-76
2021/11/28 08:12:14;;;;;;;;;;;;;;;;;;5115307;28;19916;-76
2021/11/28 08:14:40;;;;;;;;;;;;;;;;;;5116363;28;20730;-76
2021/11/28 08:17:05;;;;;;;;;;;;;;;;;;5097879;28;19930;-77
2021/11/28 08:19:31;;;;;;;;;;;;;;;;;;5116434;28;19926;-82
2021/11/28 08:21:58;;;;;;;;;;;;;;;;;;5116343;28;20287;-76
2021/11/28 08:24:24;;;;;;;;;;;;;;;;;;5116332;28;19967;-76
2021/11/28 08:26:49;;;;;;;;;;;;;;;;;;5116282;28;20428;-76
2021/11/28 08:29:15;;;;;;;;;;;;;;;;;;5116275;28;19911;-76
2021/11/28 08:31:41;;;;;;;;;;;;;;;;;;5116176;28;19916;-76
2021/11/28 08:34:06;;;;;;;;;;;;;;;;;;5115957;28;19926;-75
2021/11/28 08:36:35;;;;;;;;;;;;;;;;;;5116184;28;19927;-76
2021/11/28 08:39:00;;;;;;;;;;;;;;;;;;5116084;28;20382;-74
2021/11/28 08:41:27;;;;;;;;;;;;;;;;;;5116045;28;19916;-75
2021/11/28 08:43:53;;;;;;;;;;;;;;;;;;5116049;28;19920;-80
2021/11/28 08:46:19;;;;;;;;;;;;;;;;;;5115984;28;19923;-76
2021/11/28 08:48:45;;;;;;;;;;;;;;;;;;5115956;28;19916;-76
2021/11/28 08:51:10;;;;;;;;;;;;;;;;;;5115820;28;20287;-76
2021/11/28 08:53:36;;;;;;;;;;;;;;;;;;5115752;28;20355;-76
2021/11/28 08:56:02;;;;;;;;;;;;;;;;;;5115735;28;19916;-79
2021/11/28 08:58:28;;;;;;;;;;;;;;;;;;5115796;28;19966;-78
2021/11/28 09:00:54;;;;;;;;;;;;;;;;;;5115570;28;20317;-75
2021/11/28 09:03:19;;;;;;;;;;;;;;;;;;5115730;28;20397;-79
2021/11/28 09:05:45;;;;;;;;;;;;;;;;;;5115620;28;20393;-76
2021/11/28 09:08:10;;;;;;;;;;;;;;;;;;5115793;28;19915;-76
2021/11/28 09:10:38;;;;;;;;;;;;;;;;;;5097135;28;20378;-75
2021/11/28 09:13:03;;;;;;;;;;;;;;;;;;5113870;28;19927;-79
2021/11/28 09:15:30;;;;;;;;;;;;;;;;;;5093940;28;20385;-75
2021/11/28 09:18:06;;;;;;;;;;;;;;;;;;5094792;28;19969;-78
2021/11/28 09:20:32;;;;;;;;;;;;;;;;;;5076822;28;19916;-75
2021/11/28 09:25:27;;;;;;;;;;;;;;;;;;5095208;28;20291;-76
2021/11/28 09:27:54;;;;;;;;;;;;;;;;;;5094745;28;20390;-74
2021/11/28 09:30:21;;;;;;;;;;;;;;;;;;5076394;28;19928;-75
2021/11/28 09:32:46;;;;;;;;;;;;;;;;;;5094709;28;19965;-76
2021/11/28 09:35:12;;;;;;;;;;;;;;;;;;5094604;28;19916;-74
2021/11/28 09:37:38;;;;;;;;;;;;;;;;;;5094632;28;19923;-74
2021/11/28 09:40:05;;;;;;;;;;;;;;;;;;5094529;28;19923;-77
2021/11/28 09:42:35;;;;;;;;;;;;;;;;;;5094476;28;20057;-75
2021/11/28 09:45:01;;;;;;;;;;;;;;;;;;5094062;28;19998;-76
2021/11/28 09:47:27;;;;;;;;;;;;;;;;;;5094368;28;19943;-76
2021/11/28 09:49:54;;;;;;;;;;;;;;;;;;5094422;28;19920;-76
2021/11/28 09:52:21;;;;;;;;;;;;;;;;;;5076039;28;19919;-76
2021/11/28 09:54:47;;;;;;;;;;;;;;;;;;5094331;28;19923;-77
2021/11/28 09:57:14;;;;;;;;;;;;;;;;;;5094310;28;19920;-76
2021/11/28 09:59:44;;;;;;;;;;;;;;;;;;5094167;28;19916;-76
2021/11/28 10:02:30;;;;;;;;;;;;;;;;;;5094486;28;19923;-75
2021/11/28 10:04:56;;;;;;;;;;;;;;;;;;5093858;28;20359;-76
2021/11/28 10:07:22;;;;;;;;;;;;;;;;;;5094044;28;19916;-74
2021/11/28 10:09:48;;;;;;;;;;;;;;;;;;5075805;28;20268;-76
2021/11/28 10:12:33;;;;;;;;;;;;;;;;;;5094215;28;19924;-81
2021/11/28 10:15:03;;;;;;;;;;;;;;;;;;5093973;28;19962;-77
2021/11/28 10:17:33;;;;;;;;;;;;;;;;;;5093719;28;19920;-75
2021/11/28 10:19:59;;;;;;;;;;;;;;;;;;5075666;28;19916;-75
2021/11/28 10:22:25;;;;;;;;;;;;;;;;;;5075803;28;19916;-76
2021/11/28 10:24:52;;;;;;;;;;;;;;;;;;5093789;28;19923;-74
2021/11/28 10:27:18;;;;;;;;;;;;;;;;;;5093551;28;19916;-74
2021/11/28 10:29:44;;;;;;;;;;;;;;;;;;5099111;28;19930;-74
2021/11/28 10:32:11;;;;;;;;;;;;;;;;;;5090640;28;19920;-77
2021/11/28 10:34:44;;;;;;;;;;;;;;;;;;5094668;28;19988;-77
2021/11/28 10:37:11;;;;;;;;;;;;;;;;;;5093680;28;20291;-75
2021/11/28 10:39:54;;;;;;;;;;;;;;;;;;5093522;28;19996;-75
2021/11/28 10:42:24;;;;;;;;;;;;;;;;;;5093477;28;19920;-76
2021/11/28 10:45:00;;;;;;;;;;;;;;;;;;5093467;28;20445;-75
2021/11/28 10:47:37;;;;;;;;;;;;;;;;;;5093477;28;19955;-77
2021/11/28 10:50:07;;;;;;;;;;;;;;;;;;5093315;28;19916;-74
2021/11/28 10:52:33;;;;;;;;;;;;;;;;;;5093443;28;20351;-76
2021/11/28 10:54:58;;;;;;;;;;;;;;;;;;5093311;28;19923;-74
2021/11/28 10:57:25;;;;;;;;;;;;;;;;;;5093295;28;19923;-75
2021/11/28 10:59:55;;;;;;;;;;;;;;;;;;5093267;28;19922;-76
2021/11/28 11:02:20;;;;;;;;;;;;;;;;;;5093282;28;20314;-76
2021/11/28 11:04:46;;;;;;;;;;;;;;;;;;5075075;28;19916;-83
2021/11/28 11:07:12;;;;;;;;;;;;;;;;;;5084125;28;19924;-78
2021/11/28 11:09:42;;;;;;;;;;;;;;;;;;5095930;28;19959;-76
2021/11/28 11:12:33;;;;;;;;;;;;;;;;;;5093129;28;19924;-75
2021/11/28 11:14:59;;;;;;;;;;;;;;;;;;5093247;28;19916;-76
2021/11/28 11:17:31;;;;;;;;;;;;;;;;;;5093072;28;20322;-76
2021/11/28 11:19:58;;;;;;;;;;;;;;;;;;5092829;28;19939;-80
2021/11/28 11:22:31;;;;;;;;;;;;;;;;;;5092387;28;19943;-79
2021/11/28 11:25:01;;;;;;;;;;;;;;;;;;5092886;28;19963;-80
2021/11/28 11:27:30;;;;;;;;;;;;;;;;;;5096659;28;19920;-78
2021/11/28 11:29:57;;;;;;;;;;;;;;;;;;5113276;28;19961;-78
2021/11/28 11:32:24;;;;;;;;;;;;;;;;;;5107948;28;19930;-77
2021/11/28 11:34:52;;;;;;;;;;;;;;;;;;5083000;28;19924;-80
2021/11/28 11:37:21;;;;;;;;;;;;;;;;;;5092292;28;19916;-78
2021/11/28 11:39:48;;;;;;;;;;;;;;;;;;5095223;28;20282;-78
2021/11/28 11:42:16;;;;;;;;;;;;;;;;;;5091783;28;20026;-78
2021/11/28 11:44:45;;;;;;;;;;;;;;;;;;5092020;28;20028;-78
2021/11/28 11:47:10;;;;;;;;;;;;;;;;;;5091946;28;20379;-77
2021/11/28 11:49:38;;;;;;;;;;;;;;;;;;5091943;28;20057;-79
2021/11/28 11:52:04;;;;;;;;;;;;;;;;;;5091850;28;19920;-78
2021/11/28 11:54:39;;;;;;;;;;;;;;;;;;5092042;28;19945;-77
2021/11/28 11:57:11;;;;;;;;;;;;;;;;;;5092786;28;19939;-79
2021/11/28 11:59:55;;;;;;;;;;;;;;;;;;5092673;28;19924;-79
2021/11/28 12:02:31;;;;;;;;;;;;;;;;;;5092725;28;19920;-79
2021/11/28 12:04:57;;;;;;;;;;;;;;;;;;5092667;28;19916;-77
2021/11/28 12:07:41;;;;;;;;;;;;;;;;;;5092900;28;20283;-78
2021/11/28 12:10:30;;;;;;;;;;;;;;;;;;5095602;28;19924;-81
2021/11/28 12:12:57;;;;;;;;;;;;;;;;;;5090578;28;19916;-75
2021/11/28 12:15:24;;;;;;;;;;;;;;;;;;5096262;28;19919;-74
2021/11/28 12:17:51;;;;;;;;;;;;;;;;;;5096086;28;19920;-75
2021/11/28 12:20:17;;;;;;;;;;;;;;;;;;5096122;28;20007;-75
2021/11/28 12:22:46;;;;;;;;;;;;;;;;;;5111803;28;20397;-75
2021/11/28 12:25:30;;;;;;;;;;;;;;;;;;5095966;28;19923;-74
2021/11/28 12:27:55;;;;;;;;;;;;;;;;;;5077796;28;19916;-76
2021/11/28 12:30:34;;;;;;;;;;;;;;;;;;5095855;28;19916;-75
2021/11/28 12:32:59;;;;;;;;;;;;;;;;;;5095852;28;19916;-74
2021/11/28 12:35:38;;;;;;;;;;;;;;;;;;5095750;28;20424;-75
2021/11/28 12:38:03;;;;;;;;;;;;;;;;;;5095778;28;20378;-75
2021/11/28 12:40:32;;;;;;;;;;;;;;;;;;5095743;28;19941;-75
2021/11/28 12:43:12;;;;;;;;;;;;;;;;;;5095741;28;19920;-74
2021/11/28 12:45:38;;;;;;;;;;;;;;;;;;5095659;28;19957;-75
2021/11/28 12:48:04;;;;;;;;;;;;;;;;;;5095626;28;20016;-74
2021/11/28 12:50:46;;;;;;;;;;;;;;;;;;5095515;28;19916;-75
2021/11/28 12:53:23;;;;;;;;;;;;;;;;;;5095680;28;20003;-75
2021/11/28 12:56:09;;;;;;;;;;;;;;;;;;5095598;28;19919;-75
2021/11/28 12:58:34;;;;;;;;;;;;;;;;;;5095405;28;19927;-75
2021/11/28 13:01:00;;;;;;;;;;;;;;;;;;5095403;28;19916;-75
2021/11/28 13:03:25;;;;;;;;;;;;;;;;;;5077177;28;20286;-74
2021/11/28 13:05:57;;;;;;;;;;;;;;;;;;5095086;28;19922;-75
2021/11/28 13:08:23;;;;;;;;;;;;;;;;;;5095264;28;19959;-75
2021/11/28 13:10:52;;;;;;;;;;;;;;;;;;5095080;28;19972;-75
2021/11/28 13:13:28;;;;;;;;;;;;;;;;;;5095057;28;20379;-75
2021/11/28 13:15:55;;;;;;;;;;;;;;;;;;5094859;28;20362;-75
2021/11/28 13:18:22;;;;;;;;;;;;;;;;;;5095101;28;19920;-75
2021/11/28 13:20:48;;;;;;;;;;;;;;;;;;5094229;28;19912;-75
2021/11/28 13:23:15;;;;;;;;;;;;;;;;;;5094880;28;20018;-75
2021/11/28 13:25:48;;;;;;;;;;;;;;;;;;5094987;28;19916;-75
2021/11/28 13:28:21;;;;;;;;;;;;;;;;;;5095076;28;19993;-75
2021/11/28 13:30:48;;;;;;;;;;;;;;;;;;5094730;28;20359;-75
2021/11/28 13:33:19;;;;;;;;;;;;;;;;;;5094634;28;20019;-75
2021/11/28 13:35:58;;;;;;;;;;;;;;;;;;5094598;28;20450;-74
2021/11/28 13:38:23;;;;;;;;;;;;;;;;;;5094785;28;19926;-75
2021/11/28 13:41:16;;;;;;;;;;;;;;;;;;5094561;28;19920;-75
2021/11/28 13:43:44;;;;;;;;;;;;;;;;;;5092922;28;19962;-75
2021/11/28 13:46:10;;;;;;;;;;;;;;;;;;5094483;28;20332;-75
2021/11/28 13:48:46;;;;;;;;;;;;;;;;;;5094330;28;19927;-75
2021/11/28 13:51:12;;;;;;;;;;;;;;;;;;5094296;28;20394;-74
2021/11/28 13:53:50;;;;;;;;;;;;;;;;;;5094379;28;19920;-75
2021/11/28 13:56:16;;;;;;;;;;;;;;;;;;5110012;28;19983;-75
2021/11/28 13:58:41;;;;;;;;;;;;;;;;;;5110149;28;20442;-75
2021/11/28 14:01:07;;;;;;;;;;;;;;;;;;5094233;28;19923;-75
2021/11/28 14:03:40;;;;;;;;;;;;;;;;;;5094114;28;20364;-75
2021/11/28 14:06:05;;;;;;;;;;;;;;;;;;5094136;28;19916;-75
2021/11/28 14:08:32;;;;;;;;;;;;;;;;;;5094063;28;19916;-75
2021/11/28 14:11:11;;;;;;;;;;;;;;;;;;5093934;28;20395;-75
2021/11/28 14:13:43;;;;;;;;;;;;;;;;;;5109606;28;20337;-75
2021/11/28 14:16:08;;;;;;;;;;;;;;;;;;5093714;28;19920;-75
2021/11/28 14:18:43;;;;;;;;;;;;;;;;;;5093931;28;19920;-75
2021/11/28 14:21:08;;;;;;;;;;;;;;;;;;5093790;28;20338;-74
2021/11/28 14:23:34;;;;;;;;;;;;;;;;;;5093819;28;19924;-74
2021/11/28 14:26:00;;;;;;;;;;;;;;;;;;5093865;28;19912;-75
2021/11/28 14:28:33;;;;;;;;;;;;;;;;;;5093672;28;19920;-75
2021/11/28 14:31:00;;;;;;;;;;;;;;;;;;5093385;28;19917;-75
2021/11/28 14:33:32;;;;;;;;;;;;;;;;;;5093625;28;20335;-74
2021/11/28 14:36:19;;;;;;;;;;;;;;;;;;5093699;28;19999;-74
2021/11/28 14:38:50;;;;;;;;;;;;;;;;;;5075391;28;20059;-75
2021/11/28 14:41:16;;;;;;;;;;;;;;;;;;5093577;28;19924;-75
2021/11/28 14:43:51;;;;;;;;;;;;;;;;;;5093647;28;19955;-75
2021/11/28 14:46:20;;;;;;;;;;;;;;;;;;5093495;28;19942;-75
2021/11/28 14:48:46;;;;;;;;;;;;;;;;;;5093747;28;19962;-75
2021/11/28 14:51:13;;;;;;;;;;;;;;;;;;5093381;28;19923;-75
2021/11/28 14:53:43;;;;;;;;;;;;;;;;;;5093374;28;19973;-75
2021/11/28 14:56:09;;;;;;;;;;;;;;;;;;5093415;28;19927;-75
2021/11/28 14:58:39;;;;;;;;;;;;;;;;;;5093354;28;20006;-75
2021/11/28 15:01:05;;;;;;;;;;;;;;;;;;5093294;28;20268;-75
2021/11/28 15:03:30;;;;;;;;;;;;;;;;;;5093261;28;19962;-75
2021/11/28 15:06:02;;;;;;;;;;;;;;;;;;5093252;28;19924;-74
2021/11/28 15:08:27;;;;;;;;;;;;;;;;;;5108920;28;19916;-75
2021/11/28 15:10:54;;;;;;;;;;;;;;;;;;5093199;28;20018;-75
2021/11/28 15:13:28;;;;;;;;;;;;;;;;;;5093204;28;19920;-75
2021/11/28 15:15:57;;;;;;;;;;;;;;;;;;5092959;28;19912;-76
2021/11/28 15:18:23;;;;;;;;;;;;;;;;;;5075138;28;20506;-75
2021/11/28 15:20:48;;;;;;;;;;;;;;;;;;5075035;28;19999;-75
2021/11/28 15:23:14;;;;;;;;;;;;;;;;;;5093061;28;19920;-76
2021/11/28 15:25:39;;;;;;;;;;;;;;;;;;5093300;28;19927;-75
2021/11/28 15:28:06;;;;;;;;;;;;;;;;;;5092963;28;19916;-75
2021/11/28 15:30:32;;;;;;;;;;;;;;;;;;5092818;28;19924;-75
2021/11/28 15:32:58;;;;;;;;;;;;;;;;;;5093068;28;19923;-74
2021/11/28 15:35:24;;;;;;;;;;;;;;;;;;5092875;28;20383;-74
2021/11/28 15:37:51;;;;;;;;;;;;;;;;;;5092953;28;19916;-74
2021/11/28 15:40:20;;;;;;;;;;;;;;;;;;5093193;28;19920;-75
2021/11/28 15:42:45;;;;;;;;;;;;;;;;;;5092868;28;19945;-75
2021/11/28 15:45:11;;;;;;;;;;;;;;;;;;5096383;28;19916;-75
2021/11/28 15:47:37;;;;;;;;;;;;;;;;;;5112342;28;19916;-75
2021/11/28 15:50:03;;;;;;;;;;;;;;;;;;5096708;28;19919;-75
2021/11/28 15:52:29;;;;;;;;;;;;;;;;;;5096608;28;19916;-75
2021/11/28 15:54:54;;;;;;;;;;;;;;;;;;5096667;28;20278;-74
2021/11/28 15:57:20;;;;;;;;;;;;;;;;;;5096889;28;19916;-75
2021/11/28 15:59:46;;;;;;;;;;;;;;;;;;5096487;28;20014;-74
2021/11/28 16:02:11;;;;;;;;;;;;;;;;;;5078366;28;20379;-74
2021/11/28 16:04:37;;;;;;;;;;;;;;;;;;5095129;28;19966;-77
2021/11/28 16:07:03;;;;;;;;;;;;;;;;;;5095036;28;20248;-76
2021/11/28 16:09:28;;;;;;;;;;;;;;;;;;5091903;28;19920;-77
2021/11/28 16:11:54;;;;;;;;;;;;;;;;;;5094804;28;19969;-76
2021/11/28 16:14:22;;;;;;;;;;;;;;;;;;5076293;28;19974;-75
2021/11/28 16:16:47;;;;;;;;;;;;;;;;;;5095854;28;19927;-77
2021/11/28 16:19:14;;;;;;;;;;;;;;;;;;5095172;28;19928;-77
2021/11/28 16:21:39;;;;;;;;;;;;;;;;;;5096063;28;20315;-77
2021/11/28 16:24:05;;;;;;;;;;;;;;;;;;5096003;28;19916;-80
2021/11/28 16:26:30;;;;;;;;;;;;;;;;;;5095947;28;19916;-76
2021/11/28 16:28:56;;;;;;;;;;;;;;;;;;5095939;28;19931;-76
2021/11/28 16:31:22;;;;;;;;;;;;;;;;;;5095908;28;20358;-78
2021/11/28 16:33:48;;;;;;;;;;;;;;;;;;5095865;28;19939;-76
2021/11/28 16:36:13;;;;;;;;;;;;;;;;;;5094955;28;19927;-74
2021/11/28 16:38:41;;;;;;;;;;;;;;;;;;5096131;28;19920;-76
2021/11/28 16:41:07;;;;;;;;;;;;;;;;;;5095701;28;19965;-75
2021/11/28 16:43:33;;;;;;;;;;;;;;;;;;5095670;28;19916;-75
2021/11/28 16:45:58;;;;;;;;;;;;;;;;;;5095786;28;19922;-75
2021/11/28 16:48:24;;;;;;;;;;;;;;;;;;5095652;28;19919;-76
2021/11/28 16:50:49;;;;;;;;;;;;;;;;;;5095376;28;20638;-78
2021/11/28 16:53:16;;;;;;;;;;;;;;;;;;5095541;28;19927;-75
2021/11/28 16:55:42;;;;;;;;;;;;;;;;;;5095274;28;20050;-77
2021/11/28 16:58:08;;;;;;;;;;;;;;;;;;5095448;28;20018;-77